• Join FlightAware (Why Join?)
  • Login
  • US Flag 
11:22AM EDT


 

Airport Tracker/Info


-or-


 

Live Flight TrackerFlight Track Log ✈ UAL4335 ✈ 14-Apr-2013 ✈ KMHT - KEWR

Flight Track Log - Related Links

Times and Time Zones

All times are in EDT time to prevent confusion due to time zone crossing. See the UAL4335 flight status page for this flight to view local times or setup timezone preferences in your user account.

Time Position Orientation Groundspeed Altitude Reporting Facility
EDT Latitude Longitude Course Direction KTS MPH feet Rate Location/Type
07:36AM 42.9500 -71.4167 295° West 165 190 1,000  Level KA90
07:37AM 42.9667 -71.4167 360° North 184 212 1,900 2,100 Climbing KA90
07:38AM 43.0167 -71.3833 26° Northeast 207 238 3,800 2,040 Climbing KA90
07:38AM 43.0378 -71.4203 308° West 205 236 5,300 1,980 Climbing Boston Center
07:39AM 42.9640 -71.7615 280° West  Level FlightAware Approximate
07:39AM 43.0675 -71.4967 298° West 216 249 7,200  Level Boston Center
07:40AM 42.9757 -71.8725 280° West  Level FlightAware Approximate
07:40AM 43.1017 -71.5814 299° West 242 278 9,800  Level Boston Center
07:41AM 42.9987 -71.9794 295° West  Level FlightAware Approximate
07:41AM 43.1125 -71.6664 280° West 247 284 11,100  Level Boston Center
07:42AM 43.0633 -71.7667 236° Southwest 247 284 12,200 1,380 Climbing Boston Center
07:43AM 43.0178 -71.8494 233° Southwest 299 344 13,900 1,560 Climbing Boston Center
07:44AM 42.9578 -71.9494 231° Southwest 310 357 15,400 1,020 Climbing Boston Center
07:45AM 42.9103 -72.0375 234° Southwest 321 369 16,000 300 Climbing Boston Center
07:46AM 42.8439 -72.1514 232° Southwest 340 391 16,100  Climbing Boston Center
07:47AM 42.7919 -72.2419 232° Southwest 350 403 16,100  Level Boston Center
07:48AM 42.7339 -72.3439 232° Southwest 350 403 16,100  Level Boston Center
07:49AM 42.6756 -72.4458 232° Southwest 350 403 16,100  Level Boston Center
07:50AM 42.6172 -72.5472 232° Southwest 350 403 16,100  Level Boston Center
07:51AM 42.5544 -72.6486 230° Southwest 350 403 16,100  Level Boston Center
07:52AM 42.4939 -72.7525 232° Southwest 350 403 16,100  Level Boston Center
07:53AM 42.4247 -72.8675 231° Southwest 350 403 16,100  Level Boston Center
07:54AM 42.3575 -72.9683 228° Southwest 356 410 16,100  Level Boston Center
07:55AM 42.2903 -73.0631 226° Southwest 356 410 16,100  Level Boston Center
07:56AM 42.2211 -73.1578 225° Southwest 356 410 16,100  Level Boston Center
07:57AM 42.1536 -73.2550 227° Southwest 356 410 16,100  Level Boston Center
07:58AM 42.0947 -73.3411 227° Southwest 356 410 16,100  Level Boston Center
07:59AM 42.0186 -73.4433 225° Southwest 351 404 16,100  Level Boston Center
08:00AM 41.9514 -73.5231 221° Southwest 351 404 16,100  Level Boston Center
08:01AM 41.8669 -73.6219 221° Southwest 365 420 16,100 -600 Level Boston Center
08:02AM 41.8017 -73.6961 220° Southwest 365 420 15,000 -1,680 Descending Boston Center
08:03AM 41.7211 -73.7919 222° Southwest 365 420 12,800 -2,040 Descending Boston Center
08:04AM 41.6600 -73.8656 222° Southwest 347 399 11,100 -1,440 Descending Boston Center
08:05AM 41.5964 -73.9364 220° Southwest 301 346 9,900 -1,500 Descending Boston Center
08:06AM 41.5497 -73.9906 221° Southwest 256 295 8,100 -1,200 Descending Boston Center
08:08AM 41.4667 -74.0667 214° Southwest 229 264 7,000 -480 Descending New York TRACON
08:09AM 41.4167 -74.1333 225° Southwest 242 278 7,000  Level New York TRACON
08:10AM 41.3667 -74.2000 225° Southwest 239 275 7,000  Level New York TRACON
08:11AM 41.3167 -74.2500 217° Southwest 249 287 7,000 -480 Level New York TRACON
08:12AM 41.2333 -74.2333 171° South 254 292 6,100 -960 Descending New York TRACON
08:13AM 41.1667 -74.2333 180° South 257 296 5,000 -600 Descending New York TRACON
08:14AM 41.1000 -74.2000 159° South 264 304 5,000 -960 Level New York TRACON
08:15AM 41.0333 -74.1667 159° South 254 292 3,200 -960 Descending New York TRACON
08:16AM 40.9667 -74.1167 150° Southeast 257 296 3,000 -120 Descending New York TRACON
08:17AM 40.9000 -74.0833 159° South 254 292 3,000  Level New York TRACON